createdAt,value
2019-04-06T00:03:23.252Z,39.92
2019-04-06T00:06:12.313Z,21.37
2019-04-06T00:08:39.240Z,20.85
2019-04-06T00:11:07.759Z,19.83
2019-04-06T00:13:36.369Z,19.70
2019-04-06T00:16:02.833Z,20.20
2019-04-06T00:18:29.474Z,19.97
2019-04-06T00:20:58.833Z,16.37
2019-04-06T00:23:28.616Z,16.80
2019-04-06T00:25:55.396Z,15.30
2019-04-06T00:28:21.856Z,15.30
2019-04-06T00:33:37.606Z,16.83
2019-04-06T00:36:04.083Z,18.17
2019-04-06T00:38:33.950Z,15.90
2019-04-06T00:41:00.967Z,16.37
2019-04-06T00:43:32.707Z,14.53
2019-04-06T00:46:02.111Z,13.77
2019-04-06T00:48:28.679Z,13.95
2019-04-06T00:51:17.216Z,13.20
2019-04-06T00:53:44.707Z,13.80
2019-04-06T00:56:13.399Z,14.60
2019-04-06T00:59:04.787Z,14.10
2019-04-06T01:01:36.252Z,14.07
2019-04-06T01:04:02.815Z,14.50
2019-04-06T01:06:31.292Z,14.07
2019-04-06T01:08:59.972Z,13.67
2019-04-06T01:11:26.915Z,15.38
2019-04-06T01:13:53.879Z,13.80
2019-04-06T01:16:20.442Z,13.57
2019-04-06T01:18:47.018Z,13.60
2019-04-06T01:21:13.481Z,14.17
2019-04-06T01:23:40.212Z,19.17
2019-04-06T01:26:07.791Z,14.43
2019-04-06T01:28:34.660Z,12.77
2019-04-06T01:31:01.234Z,13.33
2019-04-06T01:33:27.697Z,15.23
2019-04-06T01:35:54.264Z,15.23
2019-04-06T01:38:20.726Z,13.70
2019-04-06T01:40:47.304Z,14.33
2019-04-06T01:43:13.768Z,13.87
2019-04-06T01:45:40.371Z,14.10
2019-04-06T01:48:06.864Z,13.83
2019-04-06T01:50:33.430Z,14.33
2019-04-06T01:53:00.120Z,14.77
2019-04-06T01:55:26.790Z,12.13
2019-04-06T01:57:53.355Z,11.80
2019-04-06T02:00:19.826Z,13.77
2019-04-06T02:02:48.203Z,12.83
2019-04-06T02:05:14.985Z,13.07
2019-04-06T02:07:41.659Z,12.30
2019-04-06T02:10:08.746Z,12.17
2019-04-06T02:12:35.239Z,11.97
2019-04-06T02:15:02.548Z,11.63
2019-04-06T02:17:29.367Z,11.67
2019-04-06T02:19:55.942Z,12.00
2019-04-06T02:22:22.437Z,11.47
2019-04-06T02:24:49.144Z,11.50
2019-04-06T02:27:15.847Z,11.00
2019-04-06T02:29:42.320Z,12.20
2019-04-06T02:32:19.444Z,11.03
2019-04-06T02:34:50.439Z,10.43
2019-04-06T02:37:19.027Z,10.17
2019-04-06T02:39:50.884Z,10.40
2019-04-06T02:42:27.888Z,10.20
2019-04-06T02:44:54.466Z,10.43
2019-04-06T02:47:21.130Z,10.40
2019-04-06T02:49:48.119Z,10.57
2019-04-06T02:52:14.808Z,10.07
2019-04-06T02:54:41.237Z,10.40
2019-04-06T02:57:07.834Z,11.40
2019-04-06T02:59:34.447Z,10.67
2019-04-06T03:02:01.269Z,10.30
2019-04-06T03:04:27.881Z,11.70
2019-04-06T03:06:54.453Z,12.07
2019-04-06T03:09:21.370Z,11.27
2019-04-06T03:11:47.944Z,11.83
2019-04-06T03:14:14.396Z,11.27
2019-04-06T03:16:40.983Z,10.77
2019-04-06T03:19:07.775Z,10.53
2019-04-06T03:21:34.510Z,11.60
2019-04-06T03:24:02.039Z,10.40
2019-04-06T03:26:28.609Z,10.33
2019-04-06T03:28:55.184Z,10.13
2019-04-06T03:31:26.051Z,9.97
2019-04-06T03:33:49.938Z,10.57
2019-04-06T03:36:16.591Z,10.70
2019-04-06T03:38:43.275Z,12.97
2019-04-06T03:41:09.948Z,14.17
2019-04-06T03:43:36.632Z,11.90
2019-04-06T03:46:03.226Z,11.40
2019-04-06T03:48:29.791Z,10.23
2019-04-06T03:50:56.452Z,9.60
2019-04-06T03:53:23.016Z,9.77
2019-04-06T03:55:49.699Z,9.97
2019-04-06T03:58:16.176Z,12.20
2019-04-06T04:00:43.644Z,9.17
2019-04-06T04:03:10.589Z,10.27
2019-04-06T04:05:37.502Z,10.30
2019-04-06T04:08:04.233Z,10.03
2019-04-06T04:10:34.054Z,9.93
2019-04-06T04:13:00.726Z,9.30
2019-04-06T04:15:27.409Z,9.70
2019-04-06T04:17:53.988Z,8.93
2019-04-06T04:20:20.835Z,9.20
2019-04-06T04:22:47.439Z,9.73
2019-04-06T04:25:14.082Z,12.00
2019-04-06T04:27:41.207Z,10.10
2019-04-06T04:30:07.884Z,9.60
2019-04-06T04:32:34.561Z,9.93
2019-04-06T04:35:01.156Z,9.13
2019-04-06T04:37:27.702Z,9.63
2019-04-06T04:39:54.287Z,9.63
2019-04-06T04:42:20.868Z,10.73
2019-04-06T04:44:47.322Z,9.63
2019-04-06T04:47:13.992Z,9.10
2019-04-06T04:49:40.554Z,10.23
2019-04-06T04:52:07.131Z,10.33
2019-04-06T04:54:33.804Z,10.33
2019-04-06T04:57:00.567Z,9.87
2019-04-06T04:59:27.448Z,10.30
2019-04-06T05:01:54.137Z,10.73
2019-04-06T05:04:20.816Z,10.90
2019-04-06T05:06:47.520Z,12.10
2019-04-06T05:09:14.057Z,10.73
2019-04-06T05:11:40.512Z,11.03
2019-04-06T05:14:44.115Z,11.80
2019-04-06T05:17:11.090Z,10.58
2019-04-06T05:19:37.653Z,11.83
2019-04-06T05:22:04.118Z,11.28
2019-04-06T05:24:30.703Z,13.20
2019-04-06T05:26:57.180Z,11.40
2019-04-06T05:29:23.757Z,10.10
2019-04-06T05:31:50.227Z,12.13
2019-04-06T05:34:16.914Z,11.40
2019-04-06T05:36:43.357Z,11.83
2019-04-06T05:39:10.043Z,11.63
2019-04-06T05:41:36.602Z,11.22
2019-04-06T05:44:03.197Z,11.97
2019-04-06T05:46:29.833Z,11.55
2019-04-06T05:48:56.504Z,11.18
2019-04-06T05:51:23.075Z,11.73
2019-04-06T05:53:49.902Z,10.68
2019-04-06T05:56:16.412Z,10.98
2019-04-06T05:58:44.325Z,11.38
2019-04-06T06:01:11.378Z,10.55
2019-04-06T06:03:40.190Z,11.60
2019-04-06T06:06:06.639Z,11.22
2019-04-06T06:08:33.211Z,12.63
2019-04-06T06:10:59.900Z,11.10
2019-04-06T06:13:26.467Z,12.07
2019-04-06T06:15:53.065Z,10.25
2019-04-06T06:18:26.315Z,10.75
2019-04-06T06:20:48.441Z,11.10
2019-04-06T06:23:15.328Z,10.38
2019-04-06T06:25:43.092Z,11.90
2019-04-06T06:28:14.918Z,10.78
2019-04-06T06:30:37.948Z,10.95
2019-04-06T06:33:04.632Z,12.68
2019-04-06T06:35:31.104Z,11.18
2019-04-06T06:37:57.813Z,10.78
2019-04-06T06:40:24.355Z,11.35
2019-04-06T06:42:50.940Z,10.93
2019-04-06T06:45:17.413Z,31.17
2019-04-06T06:47:43.979Z,11.68
2019-04-06T06:50:10.556Z,12.88
2019-04-06T06:52:37.015Z,11.73
2019-04-06T06:55:04.599Z,11.18
2019-04-06T06:57:31.271Z,13.13
2019-04-06T06:59:58.126Z,11.85
2019-04-06T07:02:24.741Z,12.07
2019-04-06T07:04:51.482Z,11.97
2019-04-06T07:07:18.510Z,11.55
2019-04-06T07:09:45.271Z,12.23
2019-04-06T07:12:12.260Z,11.73
2019-04-06T07:14:38.719Z,12.58
2019-04-06T07:17:05.200Z,12.98
2019-04-06T07:19:31.676Z,14.70
2019-04-06T07:21:58.255Z,13.93
2019-04-06T07:24:25.035Z,14.18
2019-04-06T07:26:51.604Z,14.30
2019-04-06T07:29:18.179Z,13.62
2019-04-06T07:31:45.186Z,13.68
2019-04-06T07:34:11.831Z,13.40
2019-04-06T07:36:38.506Z,13.93
2019-04-06T07:39:05.580Z,13.25
2019-04-06T07:41:32.147Z,14.70
2019-04-06T07:43:58.825Z,14.43
2019-04-06T07:46:25.295Z,13.83
2019-04-06T07:48:51.992Z,14.45
2019-04-06T07:51:18.674Z,13.53
2019-04-06T07:53:45.243Z,13.58
2019-04-06T07:56:11.928Z,15.18
2019-04-06T07:58:47.975Z,14.65
2019-04-06T08:01:07.104Z,15.50
2019-04-06T08:03:33.692Z,15.28
2019-04-06T08:06:00.376Z,15.28
2019-04-06T08:08:28.665Z,15.38
2019-04-06T08:10:55.304Z,15.18
2019-04-06T08:13:21.768Z,15.43
2019-04-06T08:15:48.224Z,15.83
2019-04-06T08:18:14.698Z,15.90
2019-04-06T08:20:41.260Z,15.78
2019-04-06T08:23:07.847Z,15.13
2019-04-06T08:25:34.460Z,16.52
2019-04-06T08:28:00.994Z,15.00
2019-04-06T08:30:27.579Z,15.88
2019-04-06T08:32:54.371Z,15.10
2019-04-06T08:35:26.147Z,15.85
2019-04-06T08:37:49.427Z,15.15
2019-04-06T08:40:15.995Z,16.20
2019-04-06T08:42:42.663Z,14.70
2019-04-06T08:45:09.350Z,15.75
2019-04-06T08:47:36.035Z,16.77
2019-04-06T08:50:24.307Z,16.50
2019-04-06T08:52:51.161Z,17.12
2019-04-06T08:55:17.958Z,17.52
2019-04-06T08:57:44.758Z,17.67
2019-04-06T09:00:12.100Z,20.05
2019-04-06T09:02:38.724Z,18.45
2019-04-06T09:05:05.647Z,16.60
2019-04-06T09:07:32.331Z,18.37
2019-04-06T09:09:58.880Z,18.05
2019-04-06T09:12:25.595Z,19.52
2019-04-06T09:14:52.248Z,17.98
2019-04-06T09:17:18.892Z,18.40
2019-04-06T09:19:45.575Z,17.85
2019-04-06T09:22:12.239Z,18.40
2019-04-06T09:24:38.806Z,17.80
2019-04-06T09:27:05.471Z,17.42
2019-04-06T09:29:31.943Z,17.65
2019-04-06T09:31:58.636Z,18.12
2019-04-06T09:34:25.314Z,17.07
2019-04-06T09:36:51.782Z,18.10
2019-04-06T09:39:18.368Z,17.82
2019-04-06T09:41:44.952Z,19.77
2019-04-06T09:44:29.950Z,18.05
2019-04-06T09:47:00.959Z,19.75
2019-04-06T09:49:29.403Z,20.00
2019-04-06T09:52:00.666Z,19.73
2019-04-06T09:54:29.176Z,19.05
2019-04-06T09:56:57.531Z,20.37
2019-04-06T09:59:41.072Z,22.05
2019-04-06T10:02:15.129Z,20.27
2019-04-06T10:04:52.340Z,19.85
2019-04-06T10:10:17.655Z,20.85
2019-04-06T10:13:02.502Z,19.45
2019-04-06T10:15:30.857Z,16.15
2019-04-06T10:18:02.100Z,18.27
2019-04-06T10:20:39.572Z,18.90
2019-04-06T10:23:17.065Z,51.28
2019-04-06T10:25:54.411Z,20.75
2019-04-06T10:28:39.451Z,18.82
2019-04-06T10:31:07.960Z,22.65
2019-04-06T10:33:39.194Z,19.45
2019-04-06T10:36:24.765Z,21.70
2019-04-06T10:38:55.772Z,27.35
2019-04-06T10:41:24.251Z,20.27
2019-04-06T10:44:10.560Z,20.68
2019-04-06T10:46:38.943Z,21.00
2019-04-06T10:49:22.187Z,21.55
2019-04-06T10:52:08.740Z,21.30
2019-04-06T10:54:43.151Z,23.45
2019-04-06T10:57:26.716Z,17.90
2019-04-06T11:00:01.483Z,17.12
2019-04-06T11:02:37.551Z,18.90
2019-04-06T11:05:06.824Z,23.05
2019-04-06T11:07:38.363Z,18.70
2019-04-06T11:10:16.770Z,18.35
2019-04-06T11:12:45.167Z,88.62
2019-04-06T11:15:31.748Z,31.48
2019-04-06T11:18:00.141Z,39.30
2019-04-06T11:20:46.701Z,51.73
2019-04-06T11:23:24.267Z,23.00
2019-04-06T11:25:52.664Z,21.37
2019-04-06T11:28:38.424Z,24.37
2019-04-06T11:31:09.820Z,28.40
2019-04-06T11:33:41.112Z,48.13
2019-04-06T11:36:18.240Z,57.15
2019-04-06T11:38:46.928Z,27.87
2019-04-06T11:41:15.583Z,32.53
2019-04-06T11:43:47.160Z,24.63
2019-04-06T11:46:15.792Z,29.23
2019-04-06T11:48:45.735Z,21.07
2019-04-06T11:51:33.133Z,22.42
2019-04-06T11:54:01.866Z,23.62
2019-04-06T11:56:54.015Z,20.72
2019-04-06T11:59:22.380Z,23.57
2019-04-06T12:02:07.139Z,24.02
2019-04-06T12:04:38.124Z,26.82
2019-04-06T12:07:06.576Z,20.90
2019-04-06T12:09:47.292Z,20.88
2019-04-06T12:12:33.819Z,28.73
2019-04-06T12:15:17.232Z,21.68
2019-04-06T12:18:02.350Z,46.18
2019-04-06T12:20:43.090Z,50.92
2019-04-06T12:23:11.580Z,36.03
2019-04-06T12:25:51.950Z,20.87
2019-04-06T12:28:21.525Z,24.30
2019-04-06T12:30:50.319Z,16.40
2019-04-06T12:33:35.491Z,30.92
2019-04-06T12:38:57.679Z,25.00
2019-04-06T12:41:42.724Z,24.95
2019-04-06T12:44:27.795Z,20.92
2019-04-06T12:46:59.148Z,19.10
2019-04-06T12:49:27.560Z,32.95
2019-04-06T12:52:12.551Z,25.70
2019-04-06T12:54:53.435Z,17.95
2019-04-06T12:57:34.087Z,15.72
2019-04-06T13:00:08.368Z,15.65
2019-04-06T13:02:42.983Z,21.17
2019-04-06T13:05:14.283Z,24.45
2019-04-06T13:07:45.539Z,18.73
2019-04-06T13:10:14.100Z,15.43
2019-04-06T13:12:51.131Z,19.55
2019-04-06T13:15:22.460Z,16.52
2019-04-06T13:18:07.718Z,17.57
2019-04-06T13:20:53.148Z,16.97
2019-04-06T13:23:24.200Z,16.97
2019-04-06T13:26:11.432Z,16.35
2019-04-06T13:28:48.786Z,22.98
2019-04-06T13:31:19.782Z,20.85
2019-04-06T13:33:48.683Z,18.15
2019-04-06T13:39:00.739Z,27.62
2019-04-06T13:47:27.044Z,26.00
2019-04-06T13:49:59.471Z,17.85
2019-04-06T13:52:34.100Z,16.70
2019-04-06T13:55:14.900Z,16.65
2019-04-06T13:57:44.191Z,16.82
2019-04-06T14:00:30.584Z,17.90
2019-04-06T14:03:13.988Z,16.02
2019-04-06T14:05:48.460Z,17.52
2019-04-06T14:08:16.844Z,24.40
2019-04-06T14:10:53.864Z,17.37
2019-04-06T14:13:25.127Z,30.32
2019-04-06T14:15:53.503Z,22.55
2019-04-06T14:18:38.629Z,25.48
2019-04-06T14:21:07.076Z,18.87
2019-04-06T14:23:44.429Z,21.55
2019-04-06T14:26:29.709Z,22.00
2019-04-06T14:28:58.413Z,27.13
2019-04-06T14:34:20.420Z,57.30
2019-04-06T14:36:48.787Z,18.50
2019-04-06T14:39:23.228Z,22.95
2019-04-06T14:41:54.464Z,56.00
2019-04-06T14:44:25.711Z,28.12
2019-04-06T14:46:57.325Z,28.83
2019-04-06T14:49:32.308Z,34.15
2019-04-06T14:51:58.858Z,24.47
2019-04-06T14:54:39.454Z,22.55
2019-04-06T14:57:13.740Z,107.97
2019-04-06T14:59:58.906Z,31.42
2019-04-06T15:02:45.476Z,55.40
2019-04-06T15:05:25.927Z,57.48
2019-04-06T15:07:56.473Z,130.63
2019-04-06T15:10:24.591Z,998.87
2019-04-06T15:15:59.036Z,530.05
2019-04-06T15:18:39.698Z,737.62
2019-04-06T15:21:17.245Z,37.33
2019-04-06T15:23:51.569Z,29.98
2019-04-06T15:26:20.079Z,43.83
2019-04-06T15:29:01.462Z,63.10
2019-04-06T15:31:50.467Z,45.00
2019-04-06T15:34:16.770Z,48.55
2019-04-06T15:37:06.760Z,33.53
2019-04-06T15:39:43.741Z,47.35
2019-04-06T15:42:15.139Z,33.75
2019-04-06T15:44:58.944Z,29.75
2019-04-06T15:50:25.754Z,40.85
2019-04-06T15:53:05.341Z,28.47
2019-04-06T15:55:47.272Z,34.13
2019-04-06T15:58:17.481Z,30.35
2019-04-06T16:00:45.757Z,39.58
2019-04-06T16:03:17.017Z,28.70
2019-04-06T16:05:51.701Z,33.78
2019-04-06T16:08:20.351Z,65.08
2019-04-06T16:10:51.615Z,122.25
2019-04-06T16:13:37.011Z,75.70
2019-04-06T16:16:05.722Z,62.43
2019-04-06T16:18:37.126Z,100.97
2019-04-06T16:21:08.403Z,79.75
2019-04-06T16:23:39.619Z,99.35
2019-04-06T16:26:07.882Z,71.25
2019-04-06T16:28:51.360Z,71.75
2019-04-06T16:31:19.832Z,152.25
2019-04-06T16:33:48.299Z,157.35
2019-04-06T16:36:25.930Z,116.60
2019-04-06T16:39:03.554Z,106.30
2019-04-06T16:41:47.147Z,104.58
2019-04-06T16:44:15.642Z,102.70
2019-04-06T16:46:46.986Z,126.40
2019-04-06T16:49:18.348Z,111.08
2019-04-06T16:51:52.379Z,94.90
2019-04-06T16:54:37.120Z,104.92
2019-04-06T16:57:05.578Z,112.22
2019-04-06T16:59:50.354Z,133.82
2019-04-06T17:02:25.546Z,135.88
2019-04-06T17:04:54.680Z,120.40
2019-04-06T17:07:34.945Z,156.52
2019-04-06T17:10:12.596Z,160.85
2019-04-06T17:12:41.018Z,190.88
2019-04-06T17:18:11.884Z,72.55
2019-04-06T17:20:42.399Z,74.15
2019-04-06T17:23:13.720Z,70.35
2019-04-06T17:25:51.212Z,75.60
2019-04-06T17:28:26.346Z,68.15
2019-04-06T17:31:07.038Z,66.17
2019-04-06T17:33:41.343Z,53.10
2019-04-06T17:36:15.935Z,54.10
2019-04-06T17:39:01.173Z,54.27
2019-04-06T17:41:32.970Z,53.50
2019-04-06T17:44:01.343Z,53.02
2019-04-06T17:46:35.728Z,53.05
2019-04-06T17:49:07.772Z,50.45
2019-04-06T17:51:45.148Z,50.58
2019-04-06T17:54:29.142Z,54.85
2019-04-06T17:57:03.851Z,56.50
2019-04-06T17:59:41.469Z,52.48
2019-04-06T18:02:12.999Z,55.38
2019-04-06T18:04:41.441Z,58.17
2019-04-06T18:07:17.425Z,58.13
2019-04-06T18:09:59.199Z,60.12
2019-04-06T18:12:28.080Z,63.92
2019-04-06T18:14:58.013Z,71.07
2019-04-06T18:17:33.781Z,81.08
2019-04-06T18:20:03.742Z,105.30
2019-04-06T18:22:30.927Z,99.28
2019-04-06T18:24:57.948Z,94.40
2019-04-06T18:27:45.059Z,99.03
2019-04-06T18:30:11.857Z,107.58
2019-04-06T18:32:59.665Z,110.15
2019-04-06T18:35:17.860Z,127.38
2019-04-06T18:37:48.116Z,126.15
2019-04-06T18:40:22.681Z,136.45
2019-04-06T18:42:49.791Z,157.55
2019-04-06T18:45:16.648Z,149.90
2019-04-06T18:47:43.232Z,184.60
2019-04-06T18:50:10.323Z,175.75
2019-04-06T18:52:37.299Z,166.40
2019-04-06T18:55:04.672Z,163.80
2019-04-06T18:57:31.364Z,163.77
2019-04-06T18:59:58.254Z,156.90
2019-04-06T19:02:29.029Z,144.05
2019-04-06T19:04:57.570Z,144.00
2019-04-06T19:07:26.865Z,136.77
2019-04-06T19:09:56.907Z,141.73
2019-04-06T19:12:24.690Z,143.72
2019-04-06T19:14:51.855Z,141.25
2019-04-06T19:17:20.249Z,140.52
2019-04-06T19:22:22.839Z,139.32
2019-04-06T19:24:50.018Z,140.03
2019-04-06T19:27:16.686Z,122.92
2019-04-06T19:29:43.288Z,123.95
2019-04-06T19:32:10.334Z,118.80
2019-04-06T19:34:37.202Z,111.92
2019-04-06T19:37:04.972Z,105.92
2019-04-06T19:39:31.850Z,92.27
2019-04-06T19:41:58.668Z,107.10
2019-04-06T19:44:25.138Z,101.20
2019-04-06T19:46:51.715Z,108.42
2019-04-06T19:49:18.388Z,97.85
2019-04-06T19:51:44.985Z,85.50
2019-04-06T19:54:13.571Z,75.37
2019-04-06T19:56:40.791Z,72.45
2019-04-06T19:59:07.871Z,69.95
2019-04-06T20:01:34.758Z,69.97
2019-04-06T20:04:01.431Z,66.37
2019-04-06T20:06:27.992Z,66.33
2019-04-06T20:08:55.062Z,57.95
2019-04-06T20:11:22.042Z,60.25
2019-04-06T20:13:48.609Z,53.42
2019-04-06T20:16:15.326Z,52.23
2019-04-06T20:18:41.955Z,52.13
2019-04-06T20:21:08.677Z,48.52
2019-04-06T20:23:35.398Z,44.98
2019-04-06T20:26:04.700Z,44.63
2019-04-06T20:28:31.308Z,43.05
2019-04-06T20:31:00.707Z,42.67
2019-04-06T20:33:27.259Z,42.13
2019-04-06T20:35:54.452Z,41.35
2019-04-06T20:38:21.175Z,39.23
2019-04-06T20:40:48.089Z,43.52
2019-04-06T20:43:14.931Z,45.03
2019-04-06T20:45:41.496Z,41.68
2019-04-06T20:48:07.960Z,40.40
2019-04-06T20:50:34.709Z,35.73
2019-04-06T20:53:01.291Z,43.08
2019-04-06T20:55:28.251Z,38.98
2019-04-06T20:57:55.051Z,37.78
2019-04-06T21:00:22.225Z,37.30
2019-04-06T21:02:48.952Z,37.05
2019-04-06T21:05:25.127Z,36.05
2019-04-06T21:07:52.720Z,39.10
2019-04-06T21:10:21.320Z,41.28
2019-04-06T21:12:47.972Z,36.27
2019-04-06T21:15:18.380Z,37.23
2019-04-06T21:17:43.639Z,39.70
2019-04-06T21:20:10.884Z,35.38
2019-04-06T21:22:37.542Z,35.13
2019-04-06T21:25:05.024Z,33.00
2019-04-06T21:27:51.456Z,30.10
2019-04-06T21:30:18.139Z,29.07
2019-04-06T21:32:45.039Z,35.52
2019-04-06T21:35:11.684Z,29.30
2019-04-06T21:37:58.112Z,27.82
2019-04-06T21:40:25.062Z,26.40
2019-04-06T21:42:52.318Z,25.92
2019-04-06T21:45:19.668Z,28.60
2019-04-06T21:47:46.511Z,27.07
2019-04-06T21:50:14.816Z,26.10
2019-04-06T21:52:41.653Z,25.40
2019-04-06T21:55:11.317Z,24.72
2019-04-06T22:00:06.599Z,30.92
2019-04-06T22:02:33.077Z,34.20
2019-04-06T22:05:00.045Z,32.75
2019-04-06T22:07:27.135Z,35.75
2019-04-06T22:09:53.843Z,36.55
2019-04-06T22:12:20.492Z,30.82
2019-04-06T22:14:47.388Z,28.00
2019-04-06T22:17:14.381Z,22.90
2019-04-06T22:19:41.333Z,23.12
2019-04-06T22:22:07.796Z,25.15
2019-04-06T22:24:34.478Z,25.97
2019-04-06T22:27:01.738Z,27.52
2019-04-06T22:29:28.683Z,28.50
2019-04-06T22:31:55.393Z,24.00
2019-04-06T22:34:21.959Z,24.00
2019-04-06T22:36:48.665Z,27.25
2019-04-06T22:39:15.447Z,26.70
2019-04-06T22:41:42.134Z,25.08
2019-04-06T22:44:08.699Z,22.42
2019-04-06T22:46:35.420Z,23.35
2019-04-06T22:49:02.063Z,21.62
2019-04-06T22:51:28.562Z,23.18
2019-04-06T22:53:55.685Z,21.40
2019-04-06T22:56:22.657Z,21.57
2019-04-06T22:59:09.618Z,22.35
2019-04-06T23:04:45.729Z,23.57
2019-04-06T23:07:05.699Z,19.87
2019-04-06T23:09:32.572Z,20.35
2019-04-06T23:11:59.546Z,20.20
2019-04-06T23:14:27.175Z,23.40
2019-04-06T23:16:55.277Z,25.95
2019-04-06T23:19:22.468Z,23.87
2019-04-06T23:21:49.123Z,25.30
2019-04-06T23:24:16.018Z,26.45
2019-04-06T23:26:43.237Z,25.50
2019-04-06T23:29:11.109Z,25.65
2019-04-06T23:31:38.322Z,25.72
2019-04-06T23:34:05.190Z,30.05
2019-04-06T23:36:31.836Z,31.25
2019-04-06T23:38:58.448Z,29.63
2019-04-06T23:41:25.448Z,29.30
2019-04-06T23:43:53.101Z,25.30
2019-04-06T23:46:22.588Z,23.10
2019-04-06T23:48:49.812Z,27.48
2019-04-06T23:51:16.887Z,28.15
2019-04-06T23:53:43.730Z,34.40
2019-04-06T23:56:10.574Z,30.17
2019-04-06T23:58:37.513Z,35.55
